sensor_id;sensor_type;location;lat;lon;timestamp;P1;durP1;ratioP1;P2;durP2;ratioP2
61399;SDS011;47269;48.182;-1.946;2023-02-28T06:01:49;5.65;;;3.80;;
61399;SDS011;47269;48.182;-1.946;2023-02-28T06:04:16;9.20;;;2.55;;
61399;SDS011;47269;48.182;-1.946;2023-02-28T06:06:47;4.20;;;3.33;;
61399;SDS011;47269;48.182;-1.946;2023-02-28T06:09:14;4.82;;;2.13;;
61399;SDS011;47269;48.182;-1.946;2023-02-28T06:11:40;8.32;;;3.28;;
61399;SDS011;47269;48.182;-1.946;2023-02-28T06:14:06;8.27;;;4.70;;
61399;SDS011;47269;48.182;-1.946;2023-02-28T06:16:33;4.60;;;3.33;;
61399;SDS011;47269;48.182;-1.946;2023-02-28T06:19:00;4.13;;;2.35;;
61399;SDS011;47269;48.182;-1.946;2023-02-28T06:21:28;5.20;;;2.75;;
61399;SDS011;47269;48.182;-1.946;2023-02-28T06:23:54;6.30;;;4.07;;
61399;SDS011;47269;48.182;-1.946;2023-02-28T06:26:21;9.80;;;3.13;;
61399;SDS011;47269;48.182;-1.946;2023-02-28T06:28:46;6.38;;;2.70;;
61399;SDS011;47269;48.182;-1.946;2023-02-28T06:31:13;7.20;;;3.75;;
61399;SDS011;47269;48.182;-1.946;2023-02-28T06:33:41;7.45;;;5.60;;
61399;SDS011;47269;48.182;-1.946;2023-02-28T06:36:08;8.00;;;3.67;;
61399;SDS011;47269;48.182;-1.946;2023-02-28T06:38:35;4.82;;;2.45;;
61399;SDS011;47269;48.182;-1.946;2023-02-28T06:41:01;3.92;;;2.90;;
61399;SDS011;47269;48.182;-1.946;2023-02-28T06:43:29;12.23;;;4.47;;
61399;SDS011;47269;48.182;-1.946;2023-02-28T06:45:56;3.92;;;2.75;;
61399;SDS011;47269;48.182;-1.946;2023-02-28T06:48:23;4.55;;;3.53;;
61399;SDS011;47269;48.182;-1.946;2023-02-28T06:50:49;2.20;;;1.63;;
61399;SDS011;47269;48.182;-1.946;2023-02-28T06:53:15;3.78;;;2.72;;
61399;SDS011;47269;48.182;-1.946;2023-02-28T06:55:41;4.38;;;2.78;;
61399;SDS011;47269;48.182;-1.946;2023-02-28T06:58:07;5.32;;;3.08;;
61399;SDS011;47269;48.182;-1.946;2023-02-28T07:00:44;7.00;;;3.03;;
61399;SDS011;47269;48.182;-1.946;2023-02-28T07:03:10;3.38;;;2.58;;
61399;SDS011;47269;48.182;-1.946;2023-02-28T07:05:37;8.32;;;3.42;;
61399;SDS011;47269;48.182;-1.946;2023-02-28T07:08:04;3.30;;;2.63;;
61399;SDS011;47269;48.182;-1.946;2023-02-28T07:10:31;3.15;;;2.38;;
61399;SDS011;47269;48.182;-1.946;2023-02-28T07:12:58;4.25;;;3.50;;
61399;SDS011;47269;48.182;-1.946;2023-02-28T07:15:24;3.78;;;3.35;;
61399;SDS011;47269;48.182;-1.946;2023-02-28T07:17:50;4.32;;;3.20;;
61399;SDS011;47269;48.182;-1.946;2023-02-28T07:20:16;6.63;;;3.10;;
61399;SDS011;47269;48.182;-1.946;2023-02-28T07:22:42;6.90;;;3.50;;
61399;SDS011;47269;48.182;-1.946;2023-02-28T07:25:08;9.07;;;4.68;;
61399;SDS011;47269;48.182;-1.946;2023-02-28T07:27:34;6.05;;;3.70;;
61399;SDS011;47269;48.182;-1.946;2023-02-28T07:30:00;6.00;;;3.10;;
61399;SDS011;47269;48.182;-1.946;2023-02-28T07:32:27;4.38;;;2.70;;
61399;SDS011;47269;48.182;-1.946;2023-02-28T07:34:53;3.92;;;2.88;;
61399;SDS011;47269;48.182;-1.946;2023-02-28T07:37:19;4.05;;;2.97;;
61399;SDS011;47269;48.182;-1.946;2023-02-28T07:39:45;12.63;;;6.03;;
61399;SDS011;47269;48.182;-1.946;2023-02-28T07:42:10;5.55;;;2.58;;
61399;SDS011;47269;48.182;-1.946;2023-02-28T07:44:40;8.15;;;5.10;;
61399;SDS011;47269;48.182;-1.946;2023-02-28T07:47:10;3.25;;;2.95;;
61399;SDS011;47269;48.182;-1.946;2023-02-28T07:49:36;8.35;;;3.42;;
61399;SDS011;47269;48.182;-1.946;2023-02-28T07:52:06;5.75;;;3.20;;
61399;SDS011;47269;48.182;-1.946;2023-02-28T07:54:32;9.63;;;4.80;;
61399;SDS011;47269;48.182;-1.946;2023-02-28T07:56:58;6.35;;;4.30;;
61399;SDS011;47269;48.182;-1.946;2023-02-28T07:59:24;9.35;;;4.82;;
61399;SDS011;47269;48.182;-1.946;2023-02-28T08:01:50;5.82;;;3.85;;
61399;SDS011;47269;48.182;-1.946;2023-02-28T08:04:17;6.93;;;4.25;;
61399;SDS011;47269;48.182;-1.946;2023-02-28T08:06:43;10.50;;;5.15;;
61399;SDS011;47269;48.182;-1.946;2023-02-28T08:09:09;9.27;;;4.72;;
61399;SDS011;47269;48.182;-1.946;2023-02-28T08:11:35;8.88;;;5.45;;
61399;SDS011;47269;48.182;-1.946;2023-02-28T08:14:01;2.85;;;2.55;;
61399;SDS011;47269;48.182;-1.946;2023-02-28T08:16:27;8.32;;;4.53;;
61399;SDS011;47269;48.182;-1.946;2023-02-28T08:18:53;8.73;;;4.60;;
61399;SDS011;47269;48.182;-1.946;2023-02-28T08:21:19;10.48;;;3.75;;
61399;SDS011;47269;48.182;-1.946;2023-02-28T08:23:48;5.68;;;3.78;;
61399;SDS011;47269;48.182;-1.946;2023-02-28T08:26:16;4.80;;;3.88;;
61399;SDS011;47269;48.182;-1.946;2023-02-28T08:28:42;6.32;;;4.32;;
61399;SDS011;47269;48.182;-1.946;2023-02-28T08:31:09;7.40;;;4.60;;
61399;SDS011;47269;48.182;-1.946;2023-02-28T08:33:37;11.80;;;5.72;;
61399;SDS011;47269;48.182;-1.946;2023-02-28T08:36:04;7.28;;;4.05;;
61399;SDS011;47269;48.182;-1.946;2023-02-28T08:38:30;9.85;;;4.10;;
61399;SDS011;47269;48.182;-1.946;2023-02-28T08:40:57;7.78;;;4.65;;
61399;SDS011;47269;48.182;-1.946;2023-02-28T08:43:25;8.07;;;5.00;;
61399;SDS011;47269;48.182;-1.946;2023-02-28T08:45:51;11.32;;;4.10;;
61399;SDS011;47269;48.182;-1.946;2023-02-28T08:48:18;9.10;;;5.78;;
61399;SDS011;47269;48.182;-1.946;2023-02-28T08:50:44;9.38;;;4.88;;
61399;SDS011;47269;48.182;-1.946;2023-02-28T08:53:19;8.43;;;2.78;;
61399;SDS011;47269;48.182;-1.946;2023-02-28T08:55:45;8.75;;;3.05;;
61399;SDS011;47269;48.182;-1.946;2023-02-28T08:58:11;4.38;;;3.90;;
61399;SDS011;47269;48.182;-1.946;2023-02-28T09:00:36;9.27;;;6.75;;
61399;SDS011;47269;48.182;-1.946;2023-02-28T09:03:02;6.20;;;4.70;;
61399;SDS011;47269;48.182;-1.946;2023-02-28T09:05:28;10.77;;;4.97;;
61399;SDS011;47269;48.182;-1.946;2023-02-28T09:07:54;8.00;;;4.15;;
61399;SDS011;47269;48.182;-1.946;2023-02-28T09:10:20;10.32;;;5.70;;
61399;SDS011;47269;48.182;-1.946;2023-02-28T09:12:46;10.57;;;5.53;;
61399;SDS011;47269;48.182;-1.946;2023-02-28T09:15:12;8.55;;;5.05;;
61399;SDS011;47269;48.182;-1.946;2023-02-28T09:17:37;4.15;;;3.75;;
61399;SDS011;47269;48.182;-1.946;2023-02-28T09:20:04;8.40;;;3.92;;
61399;SDS011;47269;48.182;-1.946;2023-02-28T09:22:30;10.23;;;5.80;;
61399;SDS011;47269;48.182;-1.946;2023-02-28T09:24:56;14.65;;;6.75;;
61399;SDS011;47269;48.182;-1.946;2023-02-28T09:27:21;5.15;;;3.85;;
61399;SDS011;47269;48.182;-1.946;2023-02-28T09:29:48;8.85;;;6.47;;
61399;SDS011;47269;48.182;-1.946;2023-02-28T09:32:14;10.48;;;4.90;;
61399;SDS011;47269;48.182;-1.946;2023-02-28T09:34:40;9.07;;;5.40;;
61399;SDS011;47269;48.182;-1.946;2023-02-28T09:37:06;10.18;;;5.93;;
61399;SDS011;47269;48.182;-1.946;2023-02-28T09:39:32;9.20;;;5.20;;
61399;SDS011;47269;48.182;-1.946;2023-02-28T09:41:57;11.30;;;6.15;;
61399;SDS011;47269;48.182;-1.946;2023-02-28T09:46:57;10.98;;;6.25;;
61399;SDS011;47269;48.182;-1.946;2023-02-28T09:49:35;14.40;;;6.53;;
61399;SDS011;47269;48.182;-1.946;2023-02-28T09:52:08;12.77;;;6.50;;
61399;SDS011;47269;48.182;-1.946;2023-02-28T09:54:37;13.98;;;7.78;;
61399;SDS011;47269;48.182;-1.946;2023-02-28T09:59:50;16.52;;;7.93;;
61399;SDS011;47269;48.182;-1.946;2023-02-28T10:05:38;13.63;;;5.57;;
61399;SDS011;47269;48.182;-1.946;2023-02-28T10:08:19;13.85;;;5.60;;
61399;SDS011;47269;48.182;-1.946;2023-02-28T10:10:57;12.90;;;5.70;;
61399;SDS011;47269;48.182;-1.946;2023-02-28T10:13:28;12.70;;;6.90;;
61399;SDS011;47269;48.182;-1.946;2023-02-28T10:16:03;11.27;;;6.53;;
61399;SDS011;47269;48.182;-1.946;2023-02-28T10:18:47;10.32;;;5.60;;
61399;SDS011;47269;48.182;-1.946;2023-02-28T10:21:21;10.93;;;5.63;;
61399;SDS011;47269;48.182;-1.946;2023-02-28T10:23:53;13.27;;;6.20;;
61399;SDS011;47269;48.182;-1.946;2023-02-28T10:26:26;10.25;;;5.75;;
61399;SDS011;47269;48.182;-1.946;2023-02-28T10:28:54;9.43;;;5.15;;
61399;SDS011;47269;48.182;-1.946;2023-02-28T10:31:20;10.20;;;5.03;;
61399;SDS011;47269;48.182;-1.946;2023-02-28T10:33:46;8.85;;;4.55;;
61399;SDS011;47269;48.182;-1.946;2023-02-28T10:36:17;13.80;;;5.25;;
61399;SDS011;47269;48.182;-1.946;2023-02-28T10:38:45;10.02;;;5.05;;
61399;SDS011;47269;48.182;-1.946;2023-02-28T10:43:51;11.07;;;4.75;;
61399;SDS011;47269;48.182;-1.946;2023-02-28T10:46:18;8.90;;;4.45;;
61399;SDS011;47269;48.182;-1.946;2023-02-28T10:49:02;9.40;;;4.68;;
61399;SDS011;47269;48.182;-1.946;2023-02-28T10:51:37;8.30;;;4.47;;
61399;SDS011;47269;48.182;-1.946;2023-02-28T10:54:04;8.15;;;4.47;;
61399;SDS011;47269;48.182;-1.946;2023-02-28T10:56:30;7.07;;;3.45;;
61399;SDS011;47269;48.182;-1.946;2023-02-28T10:59:22;9.13;;;4.47;;
61399;SDS011;47269;48.182;-1.946;2023-02-28T11:01:53;8.68;;;4.63;;
61399;SDS011;47269;48.182;-1.946;2023-02-28T11:04:20;8.25;;;4.97;;
61399;SDS011;47269;48.182;-1.946;2023-02-28T11:07:17;9.48;;;4.95;;
61399;SDS011;47269;48.182;-1.946;2023-02-28T11:09:45;7.60;;;3.75;;
61399;SDS011;47269;48.182;-1.946;2023-02-28T11:12:37;8.95;;;3.95;;
61399;SDS011;47269;48.182;-1.946;2023-02-28T11:15:14;8.18;;;4.50;;
61399;SDS011;47269;48.182;-1.946;2023-02-28T11:18:24;10.80;;;4.55;;
61399;SDS011;47269;48.182;-1.946;2023-02-28T11:20:50;8.68;;;4.68;;
61399;SDS011;47269;48.182;-1.946;2023-02-28T11:23:19;9.75;;;4.85;;
61399;SDS011;47269;48.182;-1.946;2023-02-28T11:25:50;8.48;;;4.55;;
61399;SDS011;47269;48.182;-1.946;2023-02-28T11:36:23;8.02;;;4.70;;
61399;SDS011;47269;48.182;-1.946;2023-02-28T11:38:54;9.02;;;5.00;;
61399;SDS011;47269;48.182;-1.946;2023-02-28T11:44:16;11.43;;;6.55;;
61399;SDS011;47269;48.182;-1.946;2023-02-28T11:46:59;11.27;;;6.40;;
61399;SDS011;47269;48.182;-1.946;2023-02-28T11:54:55;10.65;;;5.70;;
61399;SDS011;47269;48.182;-1.946;2023-02-28T12:05:11;9.77;;;6.28;;
61399;SDS011;47269;48.182;-1.946;2023-02-28T12:08:01;10.25;;;5.65;;
61399;SDS011;47269;48.182;-1.946;2023-02-28T12:13:24;9.05;;;5.43;;
61399;SDS011;47269;48.182;-1.946;2023-02-28T12:16:27;9.32;;;4.68;;
61399;SDS011;47269;48.182;-1.946;2023-02-28T12:19:03;9.30;;;4.80;;
61399;SDS011;47269;48.182;-1.946;2023-02-28T12:22:02;7.50;;;4.47;;
61399;SDS011;47269;48.182;-1.946;2023-02-28T12:27:17;7.20;;;4.63;;
61399;SDS011;47269;48.182;-1.946;2023-02-28T12:29:48;8.90;;;4.30;;
61399;SDS011;47269;48.182;-1.946;2023-02-28T12:32:30;7.43;;;4.60;;
61399;SDS011;47269;48.182;-1.946;2023-02-28T12:35:10;8.13;;;4.15;;
61399;SDS011;47269;48.182;-1.946;2023-02-28T12:40:19;7.80;;;4.68;;
61399;SDS011;47269;48.182;-1.946;2023-02-28T12:42:49;9.55;;;5.63;;
61399;SDS011;47269;48.182;-1.946;2023-02-28T12:45:43;7.53;;;4.35;;
61399;SDS011;47269;48.182;-1.946;2023-02-28T12:48:45;7.45;;;4.22;;
61399;SDS011;47269;48.182;-1.946;2023-02-28T12:51:15;8.40;;;4.20;;
61399;SDS011;47269;48.182;-1.946;2023-02-28T13:02:10;6.53;;;3.78;;
61399;SDS011;47269;48.182;-1.946;2023-02-28T13:10:24;5.82;;;3.65;;
61399;SDS011;47269;48.182;-1.946;2023-02-28T13:13:04;7.97;;;4.53;;
61399;SDS011;47269;48.182;-1.946;2023-02-28T13:15:30;5.78;;;3.40;;
61399;SDS011;47269;48.182;-1.946;2023-02-28T13:18:00;5.80;;;3.28;;
61399;SDS011;47269;48.182;-1.946;2023-02-28T13:20:35;7.78;;;3.97;;
61399;SDS011;47269;48.182;-1.946;2023-02-28T13:29:21;6.25;;;3.60;;
61399;SDS011;47269;48.182;-1.946;2023-02-28T13:42:48;8.65;;;4.35;;
61399;SDS011;47269;48.182;-1.946;2023-02-28T13:45:25;9.38;;;5.05;;
61399;SDS011;47269;48.182;-1.946;2023-02-28T13:47:53;10.10;;;4.93;;
61399;SDS011;47269;48.182;-1.946;2023-02-28T13:50:30;8.98;;;4.88;;
61399;SDS011;47269;48.182;-1.946;2023-02-28T13:53:21;7.18;;;4.38;;
61399;SDS011;47269;48.182;-1.946;2023-02-28T13:56:07;9.25;;;4.47;;
61399;SDS011;47269;48.182;-1.946;2023-02-28T14:07:07;9.18;;;4.50;;
61399;SDS011;47269;48.182;-1.946;2023-02-28T14:09:41;8.82;;;5.18;;
61399;SDS011;47269;48.182;-1.946;2023-02-28T14:20:47;11.00;;;5.15;;
61399;SDS011;47269;48.182;-1.946;2023-02-28T14:25:45;8.85;;;4.47;;
61399;SDS011;47269;48.182;-1.946;2023-02-28T14:31:58;11.75;;;5.40;;
61399;SDS011;47269;48.182;-1.946;2023-02-28T14:37:09;7.13;;;4.03;;
61399;SDS011;47269;48.182;-1.946;2023-02-28T14:39:41;10.60;;;4.40;;
61399;SDS011;47269;48.182;-1.946;2023-02-28T14:42:28;8.38;;;5.35;;
61399;SDS011;47269;48.182;-1.946;2023-02-28T14:44:57;8.07;;;3.95;;
61399;SDS011;47269;48.182;-1.946;2023-02-28T14:47:23;8.02;;;4.63;;
61399;SDS011;47269;48.182;-1.946;2023-02-28T14:49:56;9.32;;;4.57;;
61399;SDS011;47269;48.182;-1.946;2023-02-28T14:52:27;8.02;;;3.53;;
61399;SDS011;47269;48.182;-1.946;2023-02-28T14:57:25;9.73;;;4.03;;
61399;SDS011;47269;48.182;-1.946;2023-02-28T15:00:13;7.15;;;4.57;;
61399;SDS011;47269;48.182;-1.946;2023-02-28T15:02:39;9.30;;;4.80;;
61399;SDS011;47269;48.182;-1.946;2023-02-28T15:07:35;7.65;;;4.35;;
61399;SDS011;47269;48.182;-1.946;2023-02-28T15:10:11;4.80;;;2.95;;
61399;SDS011;47269;48.182;-1.946;2023-02-28T15:13:34;10.20;;;5.43;;
61399;SDS011;47269;48.182;-1.946;2023-02-28T15:15:49;8.88;;;4.85;;
61399;SDS011;47269;48.182;-1.946;2023-02-28T15:21:15;9.88;;;4.80;;
61399;SDS011;47269;48.182;-1.946;2023-02-28T15:23:49;10.00;;;5.78;;
61399;SDS011;47269;48.182;-1.946;2023-02-28T15:26:22;7.20;;;3.85;;
61399;SDS011;47269;48.182;-1.946;2023-02-28T15:28:59;10.05;;;5.60;;
61399;SDS011;47269;48.182;-1.946;2023-02-28T15:31:32;12.70;;;4.65;;
61399;SDS011;47269;48.182;-1.946;2023-02-28T15:34:04;13.45;;;5.78;;
61399;SDS011;47269;48.182;-1.946;2023-02-28T15:36:31;10.23;;;5.25;;
61399;SDS011;47269;48.182;-1.946;2023-02-28T15:39:02;9.38;;;4.80;;
61399;SDS011;47269;48.182;-1.946;2023-02-28T15:41:43;13.75;;;5.70;;
61399;SDS011;47269;48.182;-1.946;2023-02-28T15:44:16;12.13;;;6.80;;
61399;SDS011;47269;48.182;-1.946;2023-02-28T15:49:44;11.32;;;5.72;;
61399;SDS011;47269;48.182;-1.946;2023-02-28T15:52:14;11.82;;;5.35;;
61399;SDS011;47269;48.182;-1.946;2023-02-28T15:54:42;13.75;;;7.35;;
61399;SDS011;47269;48.182;-1.946;2023-02-28T15:57:18;9.95;;;6.15;;
61399;SDS011;47269;48.182;-1.946;2023-02-28T15:59:51;12.43;;;5.45;;
61399;SDS011;47269;48.182;-1.946;2023-02-28T16:02:20;13.32;;;5.68;;
61399;SDS011;47269;48.182;-1.946;2023-02-28T16:07:35;11.27;;;4.80;;
61399;SDS011;47269;48.182;-1.946;2023-02-28T16:10:03;9.05;;;4.35;;
61399;SDS011;47269;48.182;-1.946;2023-02-28T16:12:30;8.00;;;4.03;;
61399;SDS011;47269;48.182;-1.946;2023-02-28T16:14:59;15.05;;;7.07;;
61399;SDS011;47269;48.182;-1.946;2023-02-28T16:17:31;12.10;;;7.93;;
61399;SDS011;47269;48.182;-1.946;2023-02-28T16:19:59;10.05;;;4.78;;
61399;SDS011;47269;48.182;-1.946;2023-02-28T16:22:25;12.70;;;6.82;;
61399;SDS011;47269;48.182;-1.946;2023-02-28T16:24:51;10.60;;;4.50;;
61399;SDS011;47269;48.182;-1.946;2023-02-28T16:27:18;7.53;;;4.40;;
61399;SDS011;47269;48.182;-1.946;2023-02-28T16:29:51;11.20;;;5.60;;
61399;SDS011;47269;48.182;-1.946;2023-02-28T16:32:18;7.47;;;4.03;;
61399;SDS011;47269;48.182;-1.946;2023-02-28T16:34:44;10.05;;;5.28;;
61399;SDS011;47269;48.182;-1.946;2023-02-28T16:37:11;10.30;;;6.00;;
61399;SDS011;47269;48.182;-1.946;2023-02-28T16:39:38;9.55;;;5.65;;
61399;SDS011;47269;48.182;-1.946;2023-02-28T16:42:13;6.90;;;4.03;;
61399;SDS011;47269;48.182;-1.946;2023-02-28T16:44:46;10.52;;;5.18;;
61399;SDS011;47269;48.182;-1.946;2023-02-28T16:47:12;10.68;;;4.50;;
61399;SDS011;47269;48.182;-1.946;2023-02-28T16:49:38;10.70;;;6.30;;
61399;SDS011;47269;48.182;-1.946;2023-02-28T16:52:07;7.60;;;4.38;;
61399;SDS011;47269;48.182;-1.946;2023-02-28T16:54:33;7.93;;;4.15;;
61399;SDS011;47269;48.182;-1.946;2023-02-28T16:56:59;11.07;;;4.13;;
61399;SDS011;47269;48.182;-1.946;2023-02-28T16:59:25;8.73;;;4.50;;
61399;SDS011;47269;48.182;-1.946;2023-02-28T17:01:52;7.32;;;3.45;;
61399;SDS011;47269;48.182;-1.946;2023-02-28T17:04:18;8.13;;;3.60;;
61399;SDS011;47269;48.182;-1.946;2023-02-28T17:06:44;5.72;;;2.85;;
61399;SDS011;47269;48.182;-1.946;2023-02-28T17:09:15;8.48;;;4.15;;
61399;SDS011;47269;48.182;-1.946;2023-02-28T17:11:45;4.57;;;3.20;;
61399;SDS011;47269;48.182;-1.946;2023-02-28T17:14:12;6.32;;;3.42;;
61399;SDS011;47269;48.182;-1.946;2023-02-28T17:16:38;6.53;;;3.97;;
61399;SDS011;47269;48.182;-1.946;2023-02-28T17:19:05;7.60;;;3.22;;
61399;SDS011;47269;48.182;-1.946;2023-02-28T17:21:35;6.30;;;3.22;;
61399;SDS011;47269;48.182;-1.946;2023-02-28T17:24:02;3.70;;;2.70;;
61399;SDS011;47269;48.182;-1.946;2023-02-28T17:26:28;3.53;;;2.35;;
61399;SDS011;47269;48.182;-1.946;2023-02-28T17:28:55;6.72;;;4.07;;
61399;SDS011;47269;48.182;-1.946;2023-02-28T17:31:22;5.07;;;2.22;;
61399;SDS011;47269;48.182;-1.946;2023-02-28T17:33:48;5.40;;;3.28;;
61399;SDS011;47269;48.182;-1.946;2023-02-28T17:36:15;7.35;;;3.38;;
61399;SDS011;47269;48.182;-1.946;2023-02-28T17:38:43;7.50;;;3.38;;
61399;SDS011;47269;48.182;-1.946;2023-02-28T17:41:10;6.95;;;4.63;;
61399;SDS011;47269;48.182;-1.946;2023-02-28T17:43:36;7.60;;;4.20;;
61399;SDS011;47269;48.182;-1.946;2023-02-28T17:46:02;5.68;;;3.03;;
61399;SDS011;47269;48.182;-1.946;2023-02-28T17:48:30;11.23;;;3.42;;
61399;SDS011;47269;48.182;-1.946;2023-02-28T17:50:56;8.63;;;3.55;;
61399;SDS011;47269;48.182;-1.946;2023-02-28T17:53:21;9.65;;;4.32;;
61399;SDS011;47269;48.182;-1.946;2023-02-28T17:55:48;4.75;;;2.95;;
61399;SDS011;47269;48.182;-1.946;2023-02-28T17:58:14;9.40;;;4.35;;
61399;SDS011;47269;48.182;-1.946;2023-02-28T18:00:40;5.70;;;3.63;;
61399;SDS011;47269;48.182;-1.946;2023-02-28T18:03:05;4.68;;;2.58;;
61399;SDS011;47269;48.182;-1.946;2023-02-28T18:05:31;8.32;;;3.28;;
61399;SDS011;47269;48.182;-1.946;2023-02-28T18:07:57;7.25;;;2.97;;
61399;SDS011;47269;48.182;-1.946;2023-02-28T18:10:23;6.22;;;3.03;;
61399;SDS011;47269;48.182;-1.946;2023-02-28T18:12:50;9.90;;;3.33;;
61399;SDS011;47269;48.182;-1.946;2023-02-28T18:15:17;3.95;;;3.38;;
61399;SDS011;47269;48.182;-1.946;2023-02-28T18:17:45;10.13;;;5.13;;
61399;SDS011;47269;48.182;-1.946;2023-02-28T18:20:11;6.25;;;4.10;;
61399;SDS011;47269;48.182;-1.946;2023-02-28T18:22:38;5.03;;;3.10;;
61399;SDS011;47269;48.182;-1.946;2023-02-28T18:25:04;8.20;;;3.40;;
61399;SDS011;47269;48.182;-1.946;2023-02-28T18:27:31;5.57;;;2.60;;
61399;SDS011;47269;48.182;-1.946;2023-02-28T18:29:57;7.13;;;4.03;;
61399;SDS011;47269;48.182;-1.946;2023-02-28T18:32:22;7.43;;;3.50;;
61399;SDS011;47269;48.182;-1.946;2023-02-28T18:34:48;10.07;;;4.93;;
61399;SDS011;47269;48.182;-1.946;2023-02-28T18:37:14;7.43;;;3.60;;
61399;SDS011;47269;48.182;-1.946;2023-02-28T18:39:42;5.40;;;3.15;;
61399;SDS011;47269;48.182;-1.946;2023-02-28T18:42:08;5.28;;;2.70;;
61399;SDS011;47269;48.182;-1.946;2023-02-28T18:44:35;6.65;;;3.95;;
61399;SDS011;47269;48.182;-1.946;2023-02-28T18:47:02;10.48;;;3.45;;
61399;SDS011;47269;48.182;-1.946;2023-02-28T18:49:27;6.20;;;3.53;;
61399;SDS011;47269;48.182;-1.946;2023-02-28T18:51:55;3.47;;;2.25;;
61399;SDS011;47269;48.182;-1.946;2023-02-28T18:54:22;9.48;;;3.40;;
61399;SDS011;47269;48.182;-1.946;2023-02-28T18:56:48;4.82;;;2.65;;
61399;SDS011;47269;48.182;-1.946;2023-02-28T18:59:14;7.70;;;3.85;;
61399;SDS011;47269;48.182;-1.946;2023-02-28T19:01:40;5.97;;;3.00;;
61399;SDS011;47269;48.182;-1.946;2023-02-28T19:04:06;7.50;;;3.20;;
61399;SDS011;47269;48.182;-1.946;2023-02-28T19:06:36;5.85;;;3.88;;
61399;SDS011;47269;48.182;-1.946;2023-02-28T19:09:02;5.22;;;3.20;;
61399;SDS011;47269;48.182;-1.946;2023-02-28T19:11:28;4.63;;;2.88;;
61399;SDS011;47269;48.182;-1.946;2023-02-28T19:13:54;4.40;;;2.72;;
61399;SDS011;47269;48.182;-1.946;2023-02-28T19:16:20;7.28;;;2.40;;
61399;SDS011;47269;48.182;-1.946;2023-02-28T19:18:46;2.42;;;2.03;;
61399;SDS011;47269;48.182;-1.946;2023-02-28T19:21:13;6.82;;;2.92;;
61399;SDS011;47269;48.182;-1.946;2023-02-28T19:23:40;1.05;;;0.98;;
61399;SDS011;47269;48.182;-1.946;2023-02-28T19:26:10;4.38;;;2.00;;
61399;SDS011;47269;48.182;-1.946;2023-02-28T19:28:40;6.40;;;2.85;;
61399;SDS011;47269;48.182;-1.946;2023-02-28T19:31:12;4.43;;;1.63;;
61399;SDS011;47269;48.182;-1.946;2023-02-28T19:33:40;7.07;;;3.47;;
61399;SDS011;47269;48.182;-1.946;2023-02-28T19:36:06;7.28;;;3.40;;
61399;SDS011;47269;48.182;-1.946;2023-02-28T19:38:35;4.45;;;2.15;;
61399;SDS011;47269;48.182;-1.946;2023-02-28T19:41:04;6.30;;;3.72;;
61399;SDS011;47269;48.182;-1.946;2023-02-28T19:43:33;1.88;;;1.15;;
61399;SDS011;47269;48.182;-1.946;2023-02-28T19:45:59;4.00;;;1.05;;
61399;SDS011;47269;48.182;-1.946;2023-02-28T19:48:25;3.10;;;2.38;;
61399;SDS011;47269;48.182;-1.946;2023-02-28T19:50:59;2.58;;;2.10;;
61399;SDS011;47269;48.182;-1.946;2023-02-28T19:53:30;4.32;;;2.20;;
61399;SDS011;47269;48.182;-1.946;2023-02-28T19:55:57;7.25;;;4.28;;
61399;SDS011;47269;48.182;-1.946;2023-02-28T19:58:24;5.18;;;2.45;;
61399;SDS011;47269;48.182;-1.946;2023-02-28T20:00:50;5.43;;;3.65;;
61399;SDS011;47269;48.182;-1.946;2023-02-28T20:03:16;5.47;;;3.22;;
61399;SDS011;47269;48.182;-1.946;2023-02-28T20:05:42;7.63;;;3.33;;
61399;SDS011;47269;48.182;-1.946;2023-02-28T20:08:09;6.35;;;4.25;;
61399;SDS011;47269;48.182;-1.946;2023-02-28T20:10:35;10.45;;;4.30;;
61399;SDS011;47269;48.182;-1.946;2023-02-28T20:13:01;7.70;;;4.85;;
61399;SDS011;47269;48.182;-1.946;2023-02-28T20:15:27;18.05;;;3.78;;
61399;SDS011;47269;48.182;-1.946;2023-02-28T20:17:54;5.78;;;2.92;;
61399;SDS011;47269;48.182;-1.946;2023-02-28T20:20:21;7.28;;;4.03;;
61399;SDS011;47269;48.182;-1.946;2023-02-28T20:22:47;5.53;;;2.95;;
61399;SDS011;47269;48.182;-1.946;2023-02-28T20:25:14;3.63;;;2.33;;
61399;SDS011;47269;48.182;-1.946;2023-02-28T20:27:40;4.95;;;2.67;;
61399;SDS011;47269;48.182;-1.946;2023-02-28T20:30:07;5.10;;;3.10;;
61399;SDS011;47269;48.182;-1.946;2023-02-28T20:32:34;10.48;;;4.28;;
61399;SDS011;47269;48.182;-1.946;2023-02-28T20:35:03;10.98;;;3.95;;
61399;SDS011;47269;48.182;-1.946;2023-02-28T20:37:29;7.55;;;4.90;;
61399;SDS011;47269;48.182;-1.946;2023-02-28T20:39:55;7.60;;;3.92;;
61399;SDS011;47269;48.182;-1.946;2023-02-28T20:42:21;7.07;;;2.70;;
61399;SDS011;47269;48.182;-1.946;2023-02-28T20:44:47;6.65;;;3.28;;
61399;SDS011;47269;48.182;-1.946;2023-02-28T20:47:12;6.45;;;4.18;;
61399;SDS011;47269;48.182;-1.946;2023-02-28T20:49:38;6.55;;;4.10;;
61399;SDS011;47269;48.182;-1.946;2023-02-28T20:52:04;3.97;;;2.95;;
61399;SDS011;47269;48.182;-1.946;2023-02-28T20:54:30;4.22;;;2.28;;
61399;SDS011;47269;48.182;-1.946;2023-02-28T20:56:56;4.20;;;2.85;;
61399;SDS011;47269;48.182;-1.946;2023-02-28T20:59:21;2.80;;;1.77;;
61399;SDS011;47269;48.182;-1.946;2023-02-28T21:01:47;3.97;;;2.40;;
61399;SDS011;47269;48.182;-1.946;2023-02-28T21:04:13;3.97;;;2.58;;
61399;SDS011;47269;48.182;-1.946;2023-02-28T21:06:40;6.63;;;3.42;;
61399;SDS011;47269;48.182;-1.946;2023-02-28T21:09:12;6.75;;;3.17;;
61399;SDS011;47269;48.182;-1.946;2023-02-28T21:11:38;4.20;;;2.47;;
61399;SDS011;47269;48.182;-1.946;2023-02-28T21:14:06;7.13;;;2.55;;
61399;SDS011;47269;48.182;-1.946;2023-02-28T21:16:33;8.73;;;3.80;;
61399;SDS011;47269;48.182;-1.946;2023-02-28T21:18:59;2.95;;;2.15;;
61399;SDS011;47269;48.182;-1.946;2023-02-28T21:21:28;6.35;;;2.55;;
61399;SDS011;47269;48.182;-1.946;2023-02-28T21:23:59;3.15;;;1.70;;
61399;SDS011;47269;48.182;-1.946;2023-02-28T21:26:25;5.18;;;2.15;;
61399;SDS011;47269;48.182;-1.946;2023-02-28T21:28:56;3.70;;;2.53;;
61399;SDS011;47269;48.182;-1.946;2023-02-28T21:31:23;2.42;;;1.77;;
61399;SDS011;47269;48.182;-1.946;2023-02-28T21:33:54;3.50;;;1.80;;
61399;SDS011;47269;48.182;-1.946;2023-02-28T21:36:22;5.38;;;2.05;;
61399;SDS011;47269;48.182;-1.946;2023-02-28T21:38:54;8.82;;;3.13;;
61399;SDS011;47269;48.182;-1.946;2023-02-28T21:41:21;6.10;;;3.30;;
61399;SDS011;47269;48.182;-1.946;2023-02-28T21:43:48;5.35;;;3.13;;
61399;SDS011;47269;48.182;-1.946;2023-02-28T21:46:18;5.63;;;2.45;;
61399;SDS011;47269;48.182;-1.946;2023-02-28T21:48:46;4.45;;;2.58;;
61399;SDS011;47269;48.182;-1.946;2023-02-28T21:51:16;2.78;;;1.65;;
61399;SDS011;47269;48.182;-1.946;2023-02-28T21:53:44;4.45;;;2.45;;
61399;SDS011;47269;48.182;-1.946;2023-02-28T21:56:11;7.97;;;4.15;;
61399;SDS011;47269;48.182;-1.946;2023-02-28T21:58:38;4.93;;;3.78;;
61399;SDS011;47269;48.182;-1.946;2023-02-28T22:01:05;6.70;;;3.70;;
61399;SDS011;47269;48.182;-1.946;2023-02-28T22:03:32;6.57;;;3.58;;
61399;SDS011;47269;48.182;-1.946;2023-02-28T22:05:59;1.95;;;1.60;;
61399;SDS011;47269;48.182;-1.946;2023-02-28T22:08:25;6.68;;;3.47;;
61399;SDS011;47269;48.182;-1.946;2023-02-28T22:10:51;8.20;;;3.50;;
61399;SDS011;47269;48.182;-1.946;2023-02-28T22:13:19;6.65;;;3.35;;
61399;SDS011;47269;48.182;-1.946;2023-02-28T22:15:44;5.57;;;3.03;;
61399;SDS011;47269;48.182;-1.946;2023-02-28T22:18:10;7.93;;;3.67;;
61399;SDS011;47269;48.182;-1.946;2023-02-28T22:20:36;6.53;;;3.20;;
61399;SDS011;47269;48.182;-1.946;2023-02-28T22:23:01;5.45;;;3.65;;
61399;SDS011;47269;48.182;-1.946;2023-02-28T22:25:27;9.40;;;4.88;;
61399;SDS011;47269;48.182;-1.946;2023-02-28T22:27:53;9.52;;;5.82;;
61399;SDS011;47269;48.182;-1.946;2023-02-28T22:30:19;13.48;;;4.93;;
61399;SDS011;47269;48.182;-1.946;2023-02-28T22:32:45;8.85;;;5.32;;
61399;SDS011;47269;48.182;-1.946;2023-02-28T22:35:10;8.73;;;4.97;;
61399;SDS011;47269;48.182;-1.946;2023-02-28T22:37:36;7.32;;;4.43;;